Аэропорт: Габала. Габала

ICAO: UBBQ

METAR:
2021-01-27 04:00:00
UBBQ 270400Z VRB02KT 8000 NSC M04/M06 Q1020 R34/CLRD// NOSIG RMK MT OP
METAR:
Информация по данной станции не доступна